Time;durP1;ratioP1;P1;durP2;ratioP2;P2;SDS_P1;SDS_P2;PMS_P1;PMS_P2;Temp;Humidity;BMP_temperature;BMP_pressure;BME280_temperature;BME280_humidity;BME280_pressure;Samples;Min_cycle;Max_cycle;Signal;HPM_P1;HPM_P2
2021/03/01 00:01:48;;;;;;;17.87;9.27;;;;;;;2.91;85.63;101888.35;652834;216;24833;-78
2021/03/01 00:04:15;;;;;;;22.53;9.20;;;;;;;2.87;85.56;101885.52;645624;221;24897;-77
2021/03/01 00:06:43;;;;;;;18.93;9.00;;;;;;;2.70;86.36;101888.67;652340;219;24862;-77
2021/03/01 00:09:11;;;;;;;13.83;8.70;;;;;;;2.81;86.03;101892.97;643538;220;24907;-78
2021/03/01 00:11:39;;;;;;;19.17;9.67;;;;;;;2.84;85.65;101885.62;651952;217;24887;-77
2021/03/01 00:14:07;;;;;;;21.50;9.87;;;;;;;2.82;85.83;101884.40;649731;216;26200;-77
2021/03/01 00:16:35;;;;;;;19.53;9.83;;;;;;;2.70;85.86;101884.83;638184;221;24955;-77
2021/03/01 00:19:03;;;;;;;19.40;9.30;;;;;;;2.70;85.93;101887.39;653437;217;24850;-78
2021/03/01 00:21:31;;;;;;;16.10;8.63;;;;;;;2.79;85.60;101882.36;646148;221;24901;-75
2021/03/01 00:23:59;;;;;;;17.00;8.87;;;;;;;2.80;85.44;101889.17;650158;219;24878;-77
2021/03/01 00:26:26;;;;;;;15.60;9.10;;;;;;;2.70;85.71;101880.13;656291;216;24931;-78
2021/03/01 00:28:54;;;;;;;16.00;8.27;;;;;;;2.82;85.20;101879.27;657163;217;24820;-78
2021/03/01 00:31:22;;;;;;;15.93;8.23;;;;;;;2.92;84.83;101875.89;640124;220;28053;-78
2021/03/01 00:33:50;;;;;;;15.30;7.80;;;;;;;2.94;84.65;101880.08;654825;216;24862;-77
2021/03/01 00:36:18;;;;;;;16.20;9.27;;;;;;;2.91;85.11;101881.48;651885;216;24874;-77
2021/03/01 00:38:46;;;;;;;16.80;8.80;;;;;;;2.84;85.36;101884.34;651349;221;24851;-77
2021/03/01 00:41:14;;;;;;;14.60;8.23;;;;;;;2.65;85.86;101885.41;641549;221;24921;-77
2021/03/01 00:43:42;;;;;;;18.50;9.07;;;;;;;2.63;85.97;101882.06;648639;221;24886;-76
2021/03/01 00:46:10;;;;;;;16.23;8.73;;;;;;;2.80;85.45;101881.47;650364;221;25204;-77
2021/03/01 00:48:38;;;;;;;16.43;9.13;;;;;;;2.86;85.02;101872.27;656008;218;24887;-78
2021/03/01 00:51:06;;;;;;;17.32;9.75;;;;;;;3.04;84.80;101869.48;649906;217;32831;-77
2021/03/01 00:53:33;;;;;;;17.20;9.50;;;;;;;3.00;84.25;101865.35;647940;221;24850;-77
2021/03/01 00:56:01;;;;;;;18.75;10.68;;;;;;;3.07;84.32;101864.22;633895;221;32758;-76
2021/03/01 00:58:29;;;;;;;16.73;9.50;;;;;;;2.93;84.34;101861.70;642246;221;23791;-76
2021/03/01 01:00:57;;;;;;;13.97;8.00;;;;;;;2.97;83.82;101862.45;641422;221;24927;-76
2021/03/01 01:03:25;;;;;;;15.30;8.10;;;;;;;2.92;83.93;101863.89;644243;221;24885;-76
2021/03/01 01:05:53;;;;;;;16.33;9.73;;;;;;;2.78;84.69;101871.70;641141;221;24926;-77
2021/03/01 01:08:21;;;;;;;17.77;8.47;;;;;;;2.62;85.40;101869.67;640688;224;24917;-77
2021/03/01 01:10:49;;;;;;;15.47;8.20;;;;;;;2.73;85.06;101871.87;645763;221;24894;-76
2021/03/01 01:13:17;;;;;;;16.23;7.67;;;;;;;2.68;85.15;101866.91;647517;220;24880;-77
2021/03/01 01:15:45;;;;;;;16.53;9.30;;;;;;;2.70;85.08;101874.55;643159;220;24925;-77
2021/03/01 01:18:13;;;;;;;16.17;8.57;;;;;;;2.79;84.61;101865.66;640480;221;25021;-77
2021/03/01 01:20:40;;;;;;;16.93;8.60;;;;;;;2.59;85.09;101877.93;646563;221;24934;-77
2021/03/01 01:23:08;;;;;;;15.23;8.63;;;;;;;2.54;86.00;101875.98;643281;221;24941;-76
2021/03/01 01:25:36;;;;;;;13.87;8.60;;;;;;;2.48;86.02;101880.02;645643;221;24877;-78
2021/03/01 01:28:04;;;;;;;17.80;9.50;;;;;;;2.61;85.83;101881.28;643630;221;24935;-77
2021/03/01 01:30:32;;;;;;;17.10;7.93;;;;;;;2.45;86.20;101873.27;639933;221;24939;-77
2021/03/01 01:33:00;;;;;;;18.10;8.30;;;;;;;2.44;86.31;101881.02;654685;217;24870;-77
2021/03/01 01:35:28;;;;;;;14.40;8.23;;;;;;;2.43;86.74;101883.20;657014;216;24865;-76
2021/03/01 01:37:56;;;;;;;15.50;9.80;;;;;;;2.67;85.70;101879.77;635844;220;32747;-77
2021/03/01 01:40:24;;;;;;;15.90;8.23;;;;;;;2.55;85.90;101874.64;640248;220;23749;-77
2021/03/01 01:42:51;;;;;;;17.40;9.10;;;;;;;2.57;85.90;101881.00;644231;220;25156;-76
2021/03/01 01:45:19;;;;;;;15.40;8.47;;;;;;;2.62;85.86;101876.53;643976;220;24900;-76
2021/03/01 01:47:49;;;;;;;15.10;8.03;;;;;;;2.52;85.94;101875.16;641287;220;24914;-76
2021/03/01 01:50:16;;;;;;;14.33;8.33;;;;;;;2.62;85.88;101867.55;638964;221;24931;-77
2021/03/01 01:52:44;;;;;;;12.70;8.00;;;;;;;2.51;86.03;101865.78;654284;216;24864;-77
2021/03/01 01:55:13;;;;;;;15.63;8.47;;;;;;;2.50;86.16;101864.11;639173;221;24937;-77
2021/03/01 01:57:41;;;;;;;16.60;8.40;;;;;;;2.48;86.29;101857.75;643291;222;24945;-77
2021/03/01 02:00:16;;;;;;;13.13;7.67;;;;;;;2.41;86.37;101864.45;654697;216;29108;-77
2021/03/01 02:02:39;;;;;;;21.90;8.73;;;;;;;2.39;86.58;101858.05;653869;217;24858;-77
2021/03/01 02:05:08;;;;;;;17.37;8.20;;;;;;;2.31;87.01;101859.61;640964;221;24888;-77
2021/03/01 02:07:39;;;;;;;18.98;10.20;;;;;;;2.59;86.40;101860.79;635012;221;32731;-78
2021/03/01 02:10:09;;;;;;;18.40;9.90;;;;;;;2.30;87.59;101861.78;645268;221;23768;-77
2021/03/01 02:12:43;;;;;;;16.60;9.60;;;;;;;2.41;86.86;101855.46;650979;217;29115;-77
2021/03/01 02:15:11;;;;;;;15.33;8.70;;;;;;;2.42;86.69;101855.85;639047;221;25110;-77
2021/03/01 02:17:40;;;;;;;15.37;7.90;;;;;;;2.34;87.15;101853.08;646482;221;24897;-75
2021/03/01 02:20:11;;;;;;;19.40;8.53;;;;;;;2.37;87.26;101850.85;659077;216;24870;-77
2021/03/01 02:22:36;;;;;;;17.50;8.60;;;;;;;2.31;87.29;101849.34;640240;221;24909;-77
2021/03/01 02:25:05;;;;;;;15.57;8.50;;;;;;;2.25;87.65;101854.70;652567;217;24836;-78
2021/03/01 02:27:34;;;;;;;20.10;8.73;;;;;;;2.38;87.42;101853.36;644876;221;24900;-77
2021/03/01 02:30:02;;;;;;;14.23;8.50;;;;;;;2.43;87.21;101848.54;642257;221;24878;-76
2021/03/01 02:32:30;;;;;;;23.77;10.40;;;;;;;2.40;87.15;101854.63;653929;216;27021;-78
2021/03/01 02:34:58;;;;;;;15.90;8.97;;;;;;;2.48;86.79;101846.64;648585;221;25146;-77
2021/03/01 02:37:26;;;;;;;21.80;9.60;;;;;;;2.19;87.99;101839.93;638025;221;32362;-76
2021/03/01 02:39:54;;;;;;;15.23;8.27;;;;;;;2.28;87.94;101849.45;649209;220;28327;-76
2021/03/01 02:42:22;;;;;;;15.83;8.97;;;;;;;2.39;87.10;101841.36;653174;217;24887;-78
2021/03/01 02:44:50;;;;;;;17.48;9.93;;;;;;;2.56;86.86;101835.67;641965;221;32870;-77
2021/03/01 02:47:17;;;;;;;16.80;9.90;;;;;;;2.56;86.42;101836.95;659569;216;23761;-77
2021/03/01 02:49:45;;;;;;;18.07;9.37;;;;;;;2.65;86.11;101837.89;639497;221;24911;-77
2021/03/01 02:52:13;;;;;;;17.23;8.67;;;;;;;2.60;86.08;101832.09;639549;221;24897;-76
2021/03/01 02:54:42;;;;;;;18.03;8.50;;;;;;;2.63;85.99;101835.38;651505;220;24891;-77
2021/03/01 02:57:10;;;;;;;18.47;8.17;;;;;;;2.63;85.40;101834.55;642301;220;25245;-77
2021/03/01 02:59:39;;;;;;;16.23;8.60;;;;;;;2.62;86.21;101833.71;647182;221;24925;-77
2021/03/01 03:02:07;;;;;;;14.93;9.43;;;;;;;2.47;86.78;101840.67;642168;221;24897;-77
2021/03/01 03:04:35;;;;;;;16.17;8.33;;;;;;;2.34;87.55;101831.27;641482;221;27037;-77
2021/03/01 03:07:03;;;;;;;17.30;9.90;;;;;;;2.45;87.62;101841.62;653759;217;24915;-77
2021/03/01 03:09:31;;;;;;;15.90;7.73;;;;;;;2.34;88.13;101852.25;649847;218;24885;-76
2021/03/01 03:11:59;;;;;;;16.43;8.80;;;;;;;2.18;88.73;101842.11;648487;221;25865;-77
2021/03/01 03:14:27;;;;;;;17.07;8.17;;;;;;;2.22;88.86;101844.95;646501;221;24923;-77
2021/03/01 03:16:55;;;;;;;16.60;8.70;;;;;;;2.15;88.93;101845.62;644244;221;26014;-77
2021/03/01 03:19:22;;;;;;;14.27;7.67;;;;;;;2.18;88.84;101841.66;643501;221;24996;-77
2021/03/01 03:21:50;;;;;;;15.90;9.70;;;;;;;2.24;89.08;101840.60;634778;222;32753;-77
2021/03/01 03:24:18;;;;;;;16.27;9.30;;;;;;;2.21;88.87;101830.45;643931;221;23780;-76
2021/03/01 03:26:46;;;;;;;16.77;9.68;;;;;;;2.28;88.54;101834.05;646221;217;32576;-77
2021/03/01 03:29:14;;;;;;;16.43;10.20;;;;;;;2.28;88.42;101831.48;652676;216;23752;-77
2021/03/01 03:31:42;;;;;;;16.23;9.10;;;;;;;2.25;88.46;101834.58;652338;216;28020;-77
2021/03/01 03:34:10;;;;;;;13.03;7.47;;;;;;;2.21;88.71;101827.88;655332;217;24872;-77
2021/03/01 03:36:39;;;;;;;15.50;8.43;;;;;;;2.10;89.23;101837.21;650561;216;24831;-77
2021/03/01 03:39:07;;;;;;;15.87;8.73;;;;;;;2.13;89.24;101838.42;651184;217;24885;-76
2021/03/01 03:41:35;;;;;;;19.40;8.87;;;;;;;2.20;88.83;101846.30;654917;217;24841;-76
2021/03/01 03:44:03;;;;;;;16.97;8.90;;;;;;;2.22;88.53;101830.39;639777;221;24949;-77
2021/03/01 03:46:30;;;;;;;18.32;10.45;;;;;;;2.29;88.36;101833.16;637925;222;32781;-77
2021/03/01 03:48:58;;;;;;;16.67;10.00;;;;;;;2.15;88.76;101835.80;652393;217;23742;-77
2021/03/01 03:51:26;;;;;;;15.97;8.37;;;;;;;2.03;89.73;101829.34;640568;221;24894;-77
2021/03/01 03:53:54;;;;;;;14.87;9.27;;;;;;;2.17;88.88;101826.31;647069;222;24909;-78
2021/03/01 03:56:22;;;;;;;15.53;8.93;;;;;;;2.24;88.24;101836.30;640941;221;24975;-77
2021/03/01 03:58:51;;;;;;;15.93;8.47;;;;;;;2.20;88.88;101837.75;657716;215;24837;-77
2021/03/01 04:01:19;;;;;;;15.90;8.40;;;;;;;2.17;88.86;101837.87;651575;216;24842;-77
2021/03/01 04:03:47;;;;;;;15.73;9.10;;;;;;;2.05;88.99;101833.97;644649;220;24921;-77
2021/03/01 04:06:15;;;;;;;15.07;8.43;;;;;;;2.08;89.52;101837.27;657198;216;24848;-77
2021/03/01 04:08:42;;;;;;;16.80;9.17;;;;;;;2.04;89.77;101836.14;640421;220;30330;-78
2021/03/01 04:11:10;;;;;;;19.70;9.27;;;;;;;2.03;89.55;101835.75;648167;220;24888;-77
2021/03/01 04:13:38;;;;;;;13.97;8.00;;;;;;;1.95;90.17;101837.72;653674;216;24897;-77
2021/03/01 04:16:07;;;;;;;15.50;8.30;;;;;;;2.05;90.04;101840.39;647486;220;25916;-77
2021/03/01 04:18:35;;;;;;;16.20;9.30;;;;;;;2.09;89.72;101844.52;643250;221;28044;-77
2021/03/01 04:21:04;;;;;;;15.60;8.77;;;;;;;2.06;89.85;101840.78;641809;221;24885;-77
2021/03/01 04:23:32;;;;;;;15.57;8.63;;;;;;;2.03;89.91;101844.29;656930;216;24858;-77
2021/03/01 04:26:00;;;;;;;14.33;8.50;;;;;;;2.02;90.13;101841.33;652439;217;24932;-77
2021/03/01 04:28:28;;;;;;;16.40;8.50;;;;;;;2.05;89.68;101844.23;639735;221;24889;-77
2021/03/01 04:30:56;;;;;;;14.77;9.23;;;;;;;1.96;90.00;101844.52;653934;216;24887;-78
2021/03/01 04:33:24;;;;;;;18.10;10.70;;;;;;;1.90;90.78;101849.42;639630;222;33725;-78
2021/03/01 04:35:52;;;;;;;14.33;9.00;;;;;;;1.89;91.00;101848.19;653439;217;23704;-78
2021/03/01 04:38:19;;;;;;;15.20;8.20;;;;;;;1.82;91.31;101856.95;649056;221;24834;-77
2021/03/01 04:40:47;;;;;;;12.67;7.77;;;;;;;1.72;91.88;101848.29;652930;218;24862;-77
2021/03/01 04:43:15;;;;;;;15.85;9.90;;;;;;;1.78;91.18;101851.93;646189;220;32599;-77
2021/03/01 04:45:43;;;;;;;16.07;9.00;;;;;;;1.69;91.96;101844.55;658179;217;23730;-77
2021/03/01 04:48:11;;;;;;;16.93;10.10;;;;;;;1.82;91.70;101838.55;647979;217;32566;-77
2021/03/01 04:50:39;;;;;;;14.77;9.20;;;;;;;1.70;91.79;101841.53;640023;221;23770;-77
2021/03/01 04:53:07;;;;;;;15.53;9.93;;;;;;;1.76;92.47;101840.05;639545;221;24888;-76
2021/03/01 04:55:35;;;;;;;16.57;8.83;;;;;;;1.72;92.19;101831.62;653412;219;24902;-77
2021/03/01 04:58:03;;;;;;;17.60;8.13;;;;;;;1.78;91.97;101835.70;655896;217;24843;-76
2021/03/01 05:00:31;;;;;;;17.00;8.00;;;;;;;1.73;91.51;101838.87;655088;216;24877;-77
2021/03/01 05:02:59;;;;;;;14.93;8.27;;;;;;;1.78;92.05;101839.11;651609;217;28063;-77
2021/03/01 05:05:27;;;;;;;13.33;8.60;;;;;;;1.76;92.38;101835.75;654075;216;24850;-77
2021/03/01 05:07:57;;;;;;;14.73;9.28;;;;;;;1.87;92.09;101838.43;647506;216;43556;-77
2021/03/01 05:10:25;;;;;;;17.40;9.70;;;;;;;1.78;92.39;101838.27;654535;215;23757;-78
2021/03/01 05:12:53;;;;;;;17.67;9.37;;;;;;;1.77;92.41;101833.58;655936;216;24892;-77
2021/03/01 05:15:21;;;;;;;15.73;8.70;;;;;;;1.77;92.85;101834.86;656816;217;24826;-77
2021/03/01 05:17:49;;;;;;;21.82;10.98;;;;;;;1.84;91.70;101839.81;647216;217;33001;-78
2021/03/01 05:20:17;;;;;;;15.77;9.33;;;;;;;1.75;92.36;101837.09;652100;216;23738;-77
2021/03/01 05:22:45;;;;;;;18.43;8.90;;;;;;;1.63;93.09;101840.88;657277;216;24846;-77
2021/03/01 05:25:14;;;;;;;15.23;7.93;;;;;;;1.72;93.15;101843.16;656569;217;24853;-77
2021/03/01 05:27:42;;;;;;;14.73;9.43;;;;;;;1.73;92.51;101844.83;649506;216;40829;-76
2021/03/01 05:30:10;;;;;;;18.07;10.80;;;;;;;1.81;92.87;101843.73;644980;216;32591;-77
2021/03/01 05:32:38;;;;;;;14.93;9.47;;;;;;;1.63;93.09;101841.31;654598;217;31253;-76
2021/03/01 05:35:07;;;;;;;19.17;8.97;;;;;;;1.50;94.06;101842.13;653769;216;24907;-76
2021/03/01 05:37:35;;;;;;;17.60;9.78;;;;;;;1.52;94.55;101849.77;636273;221;32853;-77
2021/03/01 05:40:04;;;;;;;18.83;9.80;;;;;;;1.50;94.02;101851.11;650538;220;25875;-77
2021/03/01 05:42:32;;;;;;;13.43;8.17;;;;;;;1.58;93.99;101854.73;643836;221;24908;-77
2021/03/01 05:45:00;;;;;;;14.17;8.80;;;;;;;1.56;93.67;101848.81;661534;216;24875;-77
2021/03/01 05:47:28;;;;;;;17.57;9.23;;;;;;;1.63;93.40;101848.56;649633;221;24854;-77
2021/03/01 05:49:56;;;;;;;13.73;8.43;;;;;;;1.61;93.58;101848.22;646968;221;24877;-77
2021/03/01 05:52:24;;;;;;;15.40;9.00;;;;;;;1.57;93.35;101855.17;655415;216;24926;-77
2021/03/01 05:54:51;;;;;;;15.93;8.83;;;;;;;1.54;93.80;101851.40;641462;221;25061;-78
2021/03/01 05:57:19;;;;;;;17.30;8.23;;;;;;;1.54;94.28;101858.25;642053;221;24917;-78
2021/03/01 05:59:48;;;;;;;16.23;9.13;;;;;;;1.58;93.87;101858.13;655985;217;24841;-77
2021/03/01 06:02:17;;;;;;;13.07;8.10;;;;;;;1.65;93.88;101860.89;638605;221;24893;-77
2021/03/01 06:04:45;;;;;;;16.23;8.67;;;;;;;1.63;94.11;101860.55;652000;219;24898;-76
2021/03/01 06:07:13;;;;;;;15.80;9.20;;;;;;;1.62;94.18;101863.55;654686;219;24866;-76
2021/03/01 06:09:41;;;;;;;17.98;10.15;;;;;;;1.72;94.58;101862.84;647719;219;32816;-77
2021/03/01 06:12:09;;;;;;;13.90;9.50;;;;;;;1.64;94.02;101871.20;652585;216;23806;-77
2021/03/01 06:14:37;;;;;;;17.50;10.00;;;;;;;1.66;94.15;101875.38;656590;216;24846;-77
2021/03/01 06:17:13;;;;;;;14.07;8.20;;;;;;;1.61;94.45;101876.42;644548;221;24887;-77
2021/03/01 06:19:45;;;;;;;13.70;7.83;;;;;;;1.52;94.77;101873.69;657300;217;24919;-77
2021/03/01 06:22:13;;;;;;;17.73;8.87;;;;;;;1.42;95.66;101885.12;654764;216;24832;-77
2021/03/01 06:24:42;;;;;;;14.53;9.00;;;;;;;1.42;95.78;101882.56;661554;216;24820;-77
2021/03/01 06:27:11;;;;;;;16.63;8.43;;;;;;;1.44;95.86;101893.16;652186;216;24848;-76
2021/03/01 06:30:05;;;;;;;15.73;9.33;;;;;;;1.49;96.04;101885.32;655110;216;24821;-77
2021/03/01 06:32:34;;;;;;;13.73;8.47;;;;;;;1.42;96.71;101891.09;652867;217;24823;-78
2021/03/01 06:35:04;;;;;;;16.10;9.30;;;;;;;1.40;96.68;101897.11;653756;216;24839;-77
2021/03/01 06:37:33;;;;;;;14.73;8.10;;;;;;;1.47;96.93;101891.77;653465;216;24818;-77
2021/03/01 06:40:03;;;;;;;15.33;8.20;;;;;;;1.58;96.54;101885.05;659032;216;27994;-77
2021/03/01 06:42:32;;;;;;;17.90;8.93;;;;;;;1.58;96.62;101903.00;650854;217;24842;-77
2021/03/01 06:47:53;;;;;;;16.67;8.93;;;;;;;1.59;96.54;101901.28;651779;217;25505;-76
2021/03/01 06:50:30;;;;;;;18.13;8.93;;;;;;;1.57;96.53;101898.77;649328;220;24936;-75
2021/03/01 06:52:52;;;;;;;19.30;11.12;;;;;;;1.57;96.84;101901.33;640504;220;32764;-77
2021/03/01 06:55:21;;;;;;;13.90;8.83;;;;;;;1.52;97.13;101900.60;648688;221;23774;-76
2021/03/01 06:57:51;;;;;;;21.77;10.00;;;;;;;1.64;96.98;101898.95;638050;225;24920;-75
2021/03/01 07:00:26;;;;;;;16.60;9.60;;;;;;;1.68;97.14;101908.23;635618;225;24953;-75
2021/03/01 07:02:55;;;;;;;17.33;10.37;;;;;;;1.72;96.58;101907.27;635941;225;24914;-76
2021/03/01 07:05:25;;;;;;;20.23;9.70;;;;;;;1.80;96.16;101910.86;638298;225;24912;-75
2021/03/01 07:07:54;;;;;;;18.90;9.87;;;;;;;1.75;96.82;101902.04;636782;225;24913;-76
2021/03/01 07:10:22;;;;;;;16.67;9.33;;;;;;;1.88;96.93;101906.80;633412;225;24898;-77
2021/03/01 07:12:51;;;;;;;24.23;9.40;;;;;;;1.96;96.20;101903.53;634213;225;24964;-79
2021/03/01 07:15:19;;;;;;;16.27;9.10;;;;;;;2.10;95.47;101905.21;638924;224;24864;-76
2021/03/01 07:17:48;;;;;;;15.90;9.27;;;;;;;2.11;95.19;101906.05;640605;224;29094;-77
2021/03/01 07:20:16;;;;;;;20.67;10.17;;;;;;;2.17;95.22;101912.29;641124;224;24868;-76
2021/03/01 07:22:45;;;;;;;14.60;9.00;;;;;;;2.35;94.62;101904.81;638103;225;24872;-76
2021/03/01 07:25:14;;;;;;;17.73;10.07;;;;;;;2.53;93.61;101910.22;634767;225;24872;-77
2021/03/01 07:27:43;;;;;;;16.83;9.50;;;;;;;2.58;93.15;101909.20;626650;226;24968;-76
2021/03/01 07:30:13;;;;;;;21.97;9.97;;;;;;;2.66;92.33;101914.05;626137;227;25041;-75
2021/03/01 07:32:43;;;;;;;15.77;8.40;;;;;;;2.73;92.49;101912.13;616496;228;24984;-76
2021/03/01 07:35:13;;;;;;;21.37;9.80;;;;;;;2.74;92.58;101905.66;623201;230;24949;-76
2021/03/01 07:37:41;;;;;;;17.97;9.80;;;;;;;2.76;91.74;101900.01;624913;229;24892;-76
2021/03/01 07:40:10;;;;;;;16.00;9.20;;;;;;;2.84;92.32;101905.73;628523;225;24930;-77
2021/03/01 07:42:41;;;;;;;13.73;9.20;;;;;;;2.93;91.57;101910.53;628067;228;24911;-75
2021/03/01 07:45:11;;;;;;;14.30;8.33;;;;;;;2.98;91.42;101903.95;628260;228;25008;-76
2021/03/01 07:47:39;;;;;;;12.53;7.83;;;;;;;3.00;91.56;101902.17;627598;229;24893;-76
2021/03/01 07:50:09;;;;;;;17.20;9.13;;;;;;;3.08;92.10;101903.16;634318;224;24879;-76
2021/03/01 07:52:40;;;;;;;17.33;9.93;;;;;;;3.24;91.56;101905.59;639711;224;24918;-77
2021/03/01 07:55:11;;;;;;;21.60;9.30;;;;;;;3.32;90.77;101898.86;638249;224;24882;-76
2021/03/01 07:57:38;;;;;;;16.33;9.27;;;;;;;3.37;90.77;101900.36;638069;223;24895;-76
2021/03/01 08:00:28;;;;;;;16.93;8.97;;;;;;;3.42;90.38;101904.91;625527;229;24994;-76
2021/03/01 08:02:53;;;;;;;11.97;8.13;;;;;;;3.51;90.27;101906.27;638175;224;24857;-78
2021/03/01 08:05:24;;;;;;;15.80;9.20;;;;;;;3.57;89.80;101917.18;635034;224;24983;-76
2021/03/01 08:07:56;;;;;;;15.67;9.17;;;;;;;3.62;90.47;101908.44;639029;224;24930;-76
2021/03/01 08:10:46;;;;;;;15.73;9.83;;;;;;;3.88;90.23;101919.86;640729;223;24871;-76
2021/03/01 08:13:14;;;;;;;18.40;10.10;;;;;;;4.01;88.53;101911.20;638985;221;25911;-76
2021/03/01 08:15:43;;;;;;;18.33;9.63;;;;;;;4.11;88.29;101906.08;626888;225;24907;-77
2021/03/01 08:18:13;;;;;;;18.17;9.97;;;;;;;4.12;87.74;101897.01;638023;225;24844;-76
2021/03/01 08:20:46;;;;;;;16.40;9.47;;;;;;;4.14;88.39;101904.22;636670;225;24881;-76
2021/03/01 08:23:18;;;;;;;15.73;8.60;;;;;;;4.31;87.86;101903.52;633875;225;24969;-76
2021/03/01 08:25:52;;;;;;;16.60;10.17;;;;;;;4.44;87.88;101898.70;637371;225;29224;-75
2021/03/01 08:28:50;;;;;;;18.15;11.25;;;;;;;4.61;86.74;101902.69;634860;222;32861;-75
2021/03/01 08:31:21;;;;;;;17.93;9.13;;;;;;;4.58;85.32;101888.66;622615;228;23808;-76
2021/03/01 08:33:49;;;;;;;19.53;10.07;;;;;;;4.76;86.87;101900.73;641696;223;24915;-75
2021/03/01 08:36:25;;;;;;;17.80;11.07;;;;;;;4.87;85.59;101883.98;623238;229;24918;-75
2021/03/01 08:38:53;;;;;;;14.23;8.50;;;;;;;5.04;83.75;101882.78;627294;228;25134;-78
2021/03/01 08:41:20;;;;;;;19.73;10.90;;;;;;;5.06;84.57;101882.25;620801;228;33878;-77
2021/03/01 08:43:52;;;;;;;18.73;11.70;;;;;;;5.28;82.94;101876.52;631493;224;32647;-74
2021/03/01 08:46:19;;;;;;;17.37;9.90;;;;;;;5.38;83.72;101881.27;636878;225;24907;-74
2021/03/01 08:48:47;;;;;;;21.20;10.83;;;;;;;5.49;82.28;101879.01;627133;228;28105;-75
2021/03/01 08:51:16;;;;;;;12.33;8.13;;;;;;;5.41;81.29;101866.94;622511;229;24890;-75
2021/03/01 08:53:45;;;;;;;19.83;11.03;;;;;;;5.54;82.78;101867.58;640084;224;24888;-76
2021/03/01 08:56:17;;;;;;;18.03;10.00;;;;;;;5.59;81.72;101862.20;624198;229;24902;-75
2021/03/01 08:58:46;;;;;;;16.80;9.57;;;;;;;5.63;80.83;101859.84;622814;226;25004;-76
2021/03/01 09:01:17;;;;;;;19.33;10.70;;;;;;;5.62;81.45;101846.10;619686;229;24998;-75
2021/03/01 09:03:46;;;;;;;18.07;10.90;;;;;;;5.77;80.50;101850.15;625831;229;24988;-75
2021/03/01 09:06:15;;;;;;;17.73;11.00;;;;;;;5.84;80.37;101842.51;620317;228;32956;-76
2021/03/01 09:08:43;;;;;;;17.40;10.10;;;;;;;5.80;79.41;101840.53;625163;228;24913;-75
2021/03/01 09:11:14;;;;;;;16.40;10.50;;;;;;;5.88;80.30;101845.31;628514;227;24934;-75
2021/03/01 09:13:43;;;;;;;18.60;11.47;;;;;;;6.16;80.99;101848.23;626913;225;24969;-79
2021/03/01 09:16:13;;;;;;;16.23;9.73;;;;;;;6.23;79.39;101852.66;624821;229;24915;-76
2021/03/01 09:18:41;;;;;;;18.23;10.10;;;;;;;6.44;80.67;101848.98;640738;223;24896;-75
2021/03/01 09:23:47;;;;;;;16.77;8.90;;;;;;;6.55;79.17;101841.52;648182;218;25478;-76
2021/03/01 09:26:21;;;;;;;17.47;10.77;;;;;;;6.75;77.46;101845.64;631224;225;31393;-77
2021/03/01 09:28:49;;;;;;;18.50;10.10;;;;;;;6.98;78.03;101847.03;624743;229;24956;-76
2021/03/01 09:31:17;;;;;;;16.87;10.20;;;;;;;7.11;78.04;101845.45;615929;230;24987;-76
2021/03/01 09:33:45;;;;;;;14.90;9.33;;;;;;;7.12;77.19;101831.61;633891;224;25004;-75
2021/03/01 09:36:13;;;;;;;19.17;10.27;;;;;;;7.21;76.97;101830.28;616529;229;25314;-76
2021/03/01 09:38:41;;;;;;;15.58;10.70;;;;;;;7.33;75.96;101833.50;608978;230;32969;-76
2021/03/01 09:41:09;;;;;;;19.37;11.00;;;;;;;7.50;77.40;101834.31;633880;224;23818;-75
2021/03/01 09:43:37;;;;;;;16.80;10.30;;;;;;;7.45;76.64;101841.85;620809;229;24943;-76
2021/03/01 09:46:05;;;;;;;17.00;10.40;;;;;;;7.49;75.93;101829.60;615933;230;24974;-76
2021/03/01 09:48:33;;;;;;;16.87;11.48;;;;;;;7.73;75.82;101827.37;611286;229;43894;-77
2021/03/01 09:51:01;;;;;;;17.23;11.93;;;;;;;8.14;74.85;101821.10;617438;229;32957;-74
2021/03/01 09:53:29;;;;;;;16.53;10.60;;;;;;;7.80;76.18;101813.63;633906;225;23817;-74
2021/03/01 09:55:57;;;;;;;18.73;9.63;;;;;;;8.15;75.58;101815.00;635847;225;24976;-75
2021/03/01 09:58:27;;;;;;;15.60;9.63;;;;;;;8.30;75.15;101814.13;617260;229;25310;-74
2021/03/01 10:01:05;;;;;;;17.40;11.08;;;;;;;8.29;73.78;101811.12;610632;229;33046;-75
2021/03/01 10:03:35;;;;;;;15.60;10.20;;;;;;;8.30;73.63;101805.48;618738;230;23762;-74
2021/03/01 10:06:04;;;;;;;15.70;10.17;;;;;;;8.39;73.89;101808.86;638862;221;24896;-75
2021/03/01 10:08:31;;;;;;;16.37;10.00;;;;;;;8.65;74.90;101809.89;616105;230;24983;-75
2021/03/01 10:10:59;;;;;;;15.98;11.05;;;;;;;8.92;71.79;101801.72;612408;230;33376;-75
2021/03/01 10:13:28;;;;;;;14.80;10.90;;;;;;;8.92;72.72;101796.99;623437;228;23809;-74
2021/03/01 10:15:56;;;;;;;18.10;11.00;;;;;;;9.09;71.11;101785.55;616942;226;24992;-75
2021/03/01 10:18:28;;;;;;;14.30;9.60;;;;;;;9.07;70.93;101789.55;623875;228;28184;-75
2021/03/01 10:20:58;;;;;;;16.80;9.60;;;;;;;8.85;71.61;101785.31;629140;226;25275;-74
2021/03/01 10:23:29;;;;;;;15.32;10.58;;;;;;;9.00;71.16;101784.82;629235;226;33200;-74
2021/03/01 10:26:07;;;;;;;17.35;12.30;;;;;;;9.34;72.99;101782.23;621232;226;33036;-75
2021/03/01 10:28:35;;;;;;;14.67;9.60;;;;;;;9.25;69.63;101770.66;638372;221;27062;-76
2021/03/01 10:31:04;;;;;;;15.77;10.23;;;;;;;9.40;71.37;101764.48;635130;224;24880;-75
2021/03/01 10:33:32;;;;;;;18.30;10.30;;;;;;;9.66;71.39;101768.45;614965;230;25009;-75
2021/03/01 10:36:06;;;;;;;18.67;9.60;;;;;;;9.56;67.74;101762.19;627773;228;24959;-75
2021/03/01 10:38:51;;;;;;;14.13;10.10;;;;;;;9.45;69.27;101766.34;633629;222;28152;-75
2021/03/01 10:41:20;;;;;;;13.80;9.20;;;;;;;9.45;68.81;101760.31;621229;229;24947;-74
2021/03/01 10:43:53;;;;;;;19.23;10.97;;;;;;;9.67;68.24;101763.16;636831;225;26239;-75
2021/03/01 10:46:29;;;;;;;17.82;11.30;;;;;;;9.67;70.96;101767.52;631870;221;43959;-74
2021/03/01 10:48:57;;;;;;;17.20;11.03;;;;;;;9.78;70.28;101770.25;637027;224;24909;-75
2021/03/01 10:51:25;;;;;;;14.83;9.20;;;;;;;9.81;67.33;101757.05;623964;229;25541;-75
2021/03/01 10:53:52;;;;;;;17.40;10.73;;;;;;;9.83;68.44;101753.88;618314;229;25116;-74
2021/03/01 10:56:20;;;;;;;16.33;11.07;;;;;;;10.08;69.24;101747.40;629347;225;32944;-75
2021/03/01 10:58:50;;;;;;;13.93;10.00;;;;;;;10.31;66.57;101746.34;618379;229;25031;-74
2021/03/01 11:01:18;;;;;;;15.10;9.83;;;;;;;10.45;67.45;101738.89;623821;229;24947;-75
2021/03/01 11:03:46;;;;;;;18.23;10.40;;;;;;;10.39;65.31;101738.83;638212;224;25038;-76
2021/03/01 11:06:14;;;;;;;15.90;10.00;;;;;;;10.43;66.97;101740.30;621507;227;24984;-75
2021/03/01 11:08:43;;;;;;;14.90;9.93;;;;;;;10.40;65.61;101732.69;629904;225;24947;-74
2021/03/01 11:11:10;;;;;;;13.30;9.50;;;;;;;10.59;67.19;101736.16;635353;225;25056;-75
2021/03/01 11:13:38;;;;;;;19.70;9.43;;;;;;;10.72;65.12;101723.12;637083;224;24958;-75
2021/03/01 11:16:06;;;;;;;15.03;10.20;;;;;;;10.90;65.41;101730.91;635387;220;24902;-74
2021/03/01 11:18:34;;;;;;;16.00;9.50;;;;;;;11.30;64.27;101724.48;637134;224;24921;-76
2021/03/01 11:21:02;;;;;;;15.30;9.87;;;;;;;10.79;63.13;101715.22;636906;225;24894;-75
2021/03/01 11:23:30;;;;;;;14.57;9.10;;;;;;;10.82;63.85;101718.90;632311;226;24980;-74
2021/03/01 11:25:57;;;;;;;13.40;9.57;;;;;;;10.67;63.64;101711.71;631170;225;24976;-76
2021/03/01 11:28:25;;;;;;;13.27;9.30;;;;;;;10.83;63.97;101712.75;632916;225;24941;-75
2021/03/01 11:30:53;;;;;;;16.00;9.70;;;;;;;10.97;65.17;101704.78;615290;229;25544;-75
2021/03/01 11:33:21;;;;;;;10.90;7.80;;;;;;;11.16;62.74;101702.52;620218;229;28484;-75
2021/03/01 11:35:51;;;;;;;12.77;8.40;;;;;;;10.91;61.11;101693.05;635420;225;24918;-75